createdAt,value
2022-08-12T00:00:34.342Z,47.57
2022-08-12T00:03:20.896Z,47.71
2022-08-12T00:06:09.181Z,47.61
2022-08-12T00:08:57.869Z,47.92
2022-08-12T00:11:45.344Z,48.01
2022-08-12T00:14:31.793Z,48.07
2022-08-12T00:17:18.688Z,47.98
2022-08-12T00:20:05.221Z,48.13
2022-08-12T00:22:59.374Z,48.28
2022-08-12T00:26:21.141Z,48.29
2022-08-12T00:29:02.590Z,48.37
2022-08-12T00:31:48.618Z,48.30
2022-08-12T00:34:35.155Z,48.44
2022-08-12T00:37:21.273Z,48.22
2022-08-12T00:40:11.611Z,48.66
2022-08-12T00:42:41.647Z,48.49
2022-08-12T00:45:11.543Z,48.61
2022-08-12T00:47:40.993Z,48.65
2022-08-12T00:50:18.112Z,48.86
2022-08-12T00:52:47.704Z,48.76
2022-08-12T00:55:18.884Z,48.96
2022-08-12T00:57:49.057Z,49.06
2022-08-12T01:00:21.665Z,49.01
2022-08-12T01:02:54.268Z,49.15
2022-08-12T01:05:43.146Z,49.35
2022-08-12T01:08:45.062Z,49.63
2022-08-12T01:11:33.030Z,49.57
2022-08-12T01:14:03.346Z,49.47
2022-08-12T01:16:32.250Z,49.67
2022-08-12T01:19:03.324Z,49.75
2022-08-12T01:21:58.130Z,49.66
2022-08-12T01:24:56.183Z,49.62
2022-08-12T01:27:25.750Z,49.48
2022-08-12T01:29:55.684Z,49.72
2022-08-12T01:32:27.916Z,49.64
2022-08-12T01:35:08.072Z,50.04
2022-08-12T01:37:38.855Z,49.88
2022-08-12T01:40:34.204Z,49.84
2022-08-12T01:43:04.438Z,50.00
2022-08-12T01:45:42.887Z,50.24
2022-08-12T01:48:20.582Z,50.37
2022-08-12T01:51:06.160Z,50.42
2022-08-12T01:53:50.452Z,50.61
2022-08-12T01:56:25.066Z,51.03
2022-08-12T01:59:16.164Z,50.56
2022-08-12T02:01:48.047Z,50.85
2022-08-12T02:04:42.737Z,50.94
2022-08-12T02:07:39.272Z,50.68
2022-08-12T02:10:50.525Z,50.97
2022-08-12T02:13:56.664Z,50.96
2022-08-12T02:16:40.398Z,51.01
2022-08-12T02:19:23.382Z,50.80
2022-08-12T02:22:12.210Z,50.83
2022-08-12T02:24:42.664Z,51.04
2022-08-12T02:27:13.747Z,51.11
2022-08-12T02:29:43.689Z,51.05
2022-08-12T02:32:12.757Z,51.75
2022-08-12T02:34:41.573Z,51.78
2022-08-12T02:37:15.588Z,52.60
2022-08-12T02:39:49.815Z,52.07
2022-08-12T02:42:22.352Z,52.47
2022-08-12T02:44:56.523Z,52.94
2022-08-12T02:47:59.695Z,52.95
2022-08-12T02:50:20.573Z,53.23
2022-08-12T02:52:52.028Z,53.83
2022-08-12T02:55:28.833Z,53.77
2022-08-12T02:58:12.449Z,53.29
2022-08-12T03:00:45.672Z,53.16
2022-08-12T03:03:15.535Z,53.45
2022-08-12T03:05:52.566Z,53.39
2022-08-12T03:08:32.819Z,53.84
2022-08-12T03:11:10.153Z,53.45
2022-08-12T03:13:43.669Z,53.14
2022-08-12T03:16:14.634Z,53.47
2022-08-12T03:18:46.083Z,53.56
2022-08-12T03:21:54.613Z,53.40
2022-08-12T03:24:09.353Z,53.54
2022-08-12T03:26:38.732Z,53.46
2022-08-12T03:29:08.136Z,53.42
2022-08-12T03:31:37.986Z,53.42
2022-08-12T03:34:09.095Z,53.52
2022-08-12T03:36:42.207Z,53.39
2022-08-12T03:39:36.394Z,53.84
2022-08-12T03:42:23.215Z,54.50
2022-08-12T03:45:16.316Z,53.65
2022-08-12T03:48:13.398Z,53.87
2022-08-12T03:51:06.026Z,53.77
2022-08-12T03:53:53.169Z,53.84
2022-08-12T03:56:39.192Z,53.95
2022-08-12T03:59:26.480Z,53.76
2022-08-12T04:01:57.671Z,53.86
2022-08-12T04:04:34.289Z,54.22
2022-08-12T04:07:04.166Z,54.48
2022-08-12T04:09:33.151Z,54.32
2022-08-12T04:12:19.347Z,54.25
2022-08-12T04:14:48.683Z,53.80
2022-08-12T04:17:17.398Z,53.42
2022-08-12T04:19:48.175Z,53.85
2022-08-12T04:22:16.727Z,54.07
2022-08-12T04:24:47.699Z,54.23
2022-08-12T04:27:19.219Z,54.34
2022-08-12T04:30:16.475Z,54.22
2022-08-12T04:32:42.313Z,54.65
2022-08-12T04:35:14.188Z,54.47
2022-08-12T04:37:58.953Z,54.19
2022-08-12T04:40:36.573Z,53.90
2022-08-12T04:43:06.183Z,53.93
2022-08-12T04:45:54.624Z,54.00
2022-08-12T04:48:23.320Z,53.59
2022-08-12T04:50:53.181Z,54.18
2022-08-12T04:53:21.919Z,54.45
2022-08-12T04:55:51.441Z,54.35
2022-08-12T04:58:29.272Z,54.21
2022-08-12T05:00:58.556Z,54.49
2022-08-12T05:03:28.004Z,53.78
2022-08-12T05:05:58.197Z,54.34
2022-08-12T05:08:26.979Z,52.68
2022-08-12T05:10:55.588Z,52.67
2022-08-12T05:13:27.395Z,52.47
2022-08-12T05:16:04.176Z,52.40
2022-08-12T05:18:39.072Z,52.63
2022-08-12T05:21:10.630Z,52.41
2022-08-12T05:23:40.088Z,52.08
2022-08-12T05:26:09.039Z,52.10
2022-08-12T05:28:37.726Z,51.92
2022-08-12T05:31:06.799Z,51.90
2022-08-12T05:33:37.736Z,50.82
2022-08-12T05:36:10.486Z,50.46
2022-08-12T05:38:58.699Z,50.58
2022-08-12T05:41:29.357Z,51.10
2022-08-12T05:43:59.826Z,51.28
2022-08-12T05:46:30.269Z,50.76
2022-08-12T05:49:00.914Z,50.65
2022-08-12T05:51:40.091Z,50.20
2022-08-12T05:54:12.653Z,47.53
2022-08-12T05:56:41.707Z,47.43
2022-08-12T05:59:12.274Z,48.59
2022-08-12T06:02:09.752Z,49.10
2022-08-12T06:04:32.409Z,49.30
2022-08-12T06:07:01.972Z,46.90
2022-08-12T06:09:31.890Z,48.34
2022-08-12T06:12:05.621Z,48.68
2022-08-12T06:14:37.962Z,48.36
2022-08-12T06:17:09.649Z,48.26
2022-08-12T06:20:27.894Z,45.95
2022-08-12T06:22:27.284Z,44.77
2022-08-12T06:24:57.165Z,43.82
2022-08-12T06:27:25.693Z,44.00
2022-08-12T06:30:08.481Z,43.28
2022-08-12T06:32:51.869Z,43.81
2022-08-12T06:35:49.139Z,43.66
2022-08-12T06:38:21.777Z,43.61
2022-08-12T06:41:13.723Z,42.45
2022-08-12T06:44:07.187Z,42.99
2022-08-12T06:46:32.400Z,43.07
2022-08-12T06:49:01.223Z,43.10
2022-08-12T06:51:32.488Z,42.76
2022-08-12T06:54:02.403Z,42.36
2022-08-12T06:57:02.314Z,41.45
2022-08-12T06:59:21.873Z,41.75
2022-08-12T07:01:51.714Z,41.46
2022-08-12T07:04:38.992Z,42.10
2022-08-12T07:07:09.370Z,41.20
2022-08-12T07:10:01.328Z,40.74
2022-08-12T07:12:28.660Z,40.65
2022-08-12T07:14:58.292Z,40.36
2022-08-12T07:17:36.504Z,39.48
2022-08-12T07:20:07.059Z,39.02
2022-08-12T07:22:35.732Z,39.71
2022-08-12T07:43:03.649Z,38.39
2022-08-12T07:45:32.080Z,36.63
2022-08-12T07:48:00.651Z,36.33
2022-08-12T07:50:29.042Z,36.36
2022-08-12T07:53:00.040Z,36.01
2022-08-12T07:55:29.670Z,37.12
2022-08-12T07:58:00.846Z,37.43
2022-08-12T08:00:32.672Z,36.08
2022-08-12T08:03:01.372Z,35.90
2022-08-12T08:05:33.652Z,35.99
2022-08-12T08:08:05.011Z,35.29
2022-08-12T08:10:33.544Z,35.04
2022-08-12T08:13:05.249Z,34.95
2022-08-12T08:18:27.549Z,35.65
2022-08-12T08:20:57.669Z,35.80
2022-08-12T08:23:56.256Z,34.96
2022-08-12T08:26:27.268Z,34.56
2022-08-12T08:28:55.929Z,34.19
2022-08-12T08:31:25.664Z,34.66
2022-08-12T08:34:09.193Z,35.93
2022-08-12T08:36:39.110Z,33.99
2022-08-12T08:39:08.691Z,34.38
2022-08-12T08:42:17.784Z,33.63
2022-08-12T08:44:44.192Z,33.44
2022-08-12T08:47:14.563Z,33.11
2022-08-12T08:49:43.306Z,33.53
2022-08-12T08:52:13.057Z,32.31
2022-08-12T08:55:01.450Z,33.19
2022-08-12T08:57:43.013Z,34.22
2022-08-12T09:00:16.912Z,32.79
2022-08-12T09:02:58.488Z,33.28
2022-08-12T09:05:43.266Z,32.03
2022-08-12T09:12:07.414Z,32.68
2022-08-12T09:14:18.591Z,32.73
2022-08-12T09:19:37.888Z,30.92
2022-08-12T09:22:08.793Z,31.43
2022-08-12T09:24:37.835Z,30.71
2022-08-12T09:27:12.238Z,30.32
2022-08-12T09:30:10.895Z,29.30
2022-08-12T09:33:03.888Z,30.61
2022-08-12T09:35:21.843Z,30.11
2022-08-12T09:37:59.126Z,28.35
2022-08-12T09:41:01.393Z,27.53
2022-08-12T09:43:37.097Z,26.60
2022-08-12T09:46:21.579Z,24.69
2022-08-12T09:48:55.824Z,23.06
2022-08-12T09:51:38.314Z,22.93
2022-08-12T09:54:34.325Z,23.65
2022-08-12T09:58:07.112Z,22.29
2022-08-12T10:00:15.137Z,22.23
2022-08-12T10:02:59.402Z,21.78
2022-08-12T10:06:27.601Z,22.51
2022-08-12T10:08:27.618Z,21.60
2022-08-12T10:11:20.003Z,21.89
2022-08-12T10:13:50.205Z,22.15
2022-08-12T10:16:22.339Z,21.90
2022-08-12T10:18:54.831Z,22.50
2022-08-12T10:21:36.393Z,22.29
2022-08-12T10:24:09.493Z,21.33
2022-08-12T10:26:57.151Z,21.47
2022-08-12T10:30:03.736Z,20.76
2022-08-12T10:32:44.653Z,21.50
2022-08-12T10:35:16.745Z,20.35
2022-08-12T10:38:34.991Z,21.13
2022-08-12T10:40:58.883Z,21.99
2022-08-12T10:43:54.364Z,21.03
2022-08-12T10:46:30.698Z,21.26
2022-08-12T10:49:06.214Z,22.73
2022-08-12T10:52:33.390Z,22.45
2022-08-12T10:54:41.451Z,22.77
2022-08-12T10:57:18.634Z,23.62
2022-08-12T11:00:35.147Z,23.67
2022-08-12T11:04:25.040Z,23.41
2022-08-12T11:07:09.741Z,22.99
2022-08-12T11:08:43.494Z,23.63
2022-08-12T11:12:36.981Z,24.14
2022-08-12T11:14:13.039Z,24.97
2022-08-12T11:17:22.222Z,24.81
2022-08-12T11:19:46.665Z,23.72
2022-08-12T11:22:18.147Z,24.83
2022-08-12T11:24:53.821Z,24.45
2022-08-12T11:27:23.854Z,24.44
2022-08-12T11:30:06.567Z,24.07
2022-08-12T11:32:38.723Z,25.49
2022-08-12T11:35:11.446Z,25.14
2022-08-12T11:37:58.776Z,26.26
2022-08-12T11:40:28.480Z,26.23
2022-08-12T11:43:03.596Z,24.55
2022-08-12T11:45:52.947Z,26.60
2022-08-12T11:48:26.634Z,26.70
2022-08-12T11:50:55.820Z,26.39
2022-08-12T11:53:58.917Z,27.10
2022-08-12T11:56:12.731Z,26.65
2022-08-12T12:02:01.140Z,26.73
2022-08-12T12:04:28.842Z,27.92
2022-08-12T12:07:06.794Z,27.93
2022-08-12T12:09:51.790Z,27.95
2022-08-12T12:12:23.513Z,26.71
2022-08-12T12:14:54.595Z,25.92
2022-08-12T12:17:26.634Z,25.99
2022-08-12T12:20:09.833Z,26.93
2022-08-12T12:22:39.527Z,26.19
2022-08-12T12:25:13.020Z,26.39
2022-08-12T12:28:05.218Z,26.70
2022-08-12T12:30:35.501Z,26.14
2022-08-12T12:33:06.448Z,26.72
2022-08-12T12:36:06.149Z,27.00
2022-08-12T12:38:25.188Z,27.72
2022-08-12T12:40:54.926Z,28.18
2022-08-12T12:43:28.847Z,27.40
2022-08-12T12:46:11.698Z,26.69
2022-08-12T12:48:44.519Z,25.29
2022-08-12T12:51:48.806Z,26.40
2022-08-12T12:54:09.879Z,26.38
2022-08-12T12:56:42.716Z,27.37
2022-08-12T12:59:54.818Z,28.52
2022-08-12T13:02:08.163Z,27.20
2022-08-12T13:04:38.793Z,25.83
2022-08-12T13:07:08.086Z,27.84
2022-08-12T13:09:37.022Z,27.57
2022-08-12T13:12:10.400Z,28.64
2022-08-12T13:14:40.081Z,29.10
2022-08-12T13:17:14.588Z,28.69
2022-08-12T13:19:46.620Z,27.12
2022-08-12T13:22:21.017Z,27.98
2022-08-12T13:24:55.969Z,27.62
2022-08-12T13:27:34.965Z,28.14
2022-08-12T13:30:10.947Z,28.22
2022-08-12T13:32:41.922Z,27.18
2022-08-12T13:35:19.275Z,25.59
2022-08-12T13:37:55.363Z,25.37
2022-08-12T13:40:25.677Z,27.59
2022-08-12T13:42:57.763Z,26.98
2022-08-12T13:45:29.147Z,25.90
2022-08-12T13:47:59.950Z,27.24
2022-08-12T13:50:33.285Z,27.99
2022-08-12T13:53:06.334Z,28.86
2022-08-12T13:56:01.550Z,28.50
2022-08-12T13:58:33.098Z,27.94
2022-08-12T14:01:06.502Z,29.03
2022-08-12T14:03:50.444Z,28.87
2022-08-12T14:06:25.975Z,27.94
2022-08-12T14:08:59.745Z,27.60
2022-08-12T14:11:47.920Z,27.91
2022-08-12T14:14:27.952Z,27.66
2022-08-12T14:17:02.287Z,27.17
2022-08-12T14:19:37.961Z,28.97
2022-08-12T14:22:10.619Z,29.13
2022-08-12T14:24:40.772Z,28.08
2022-08-12T14:27:11.263Z,28.52
2022-08-12T14:30:04.635Z,27.91
2022-08-12T14:32:35.546Z,27.74
2022-08-12T14:35:09.262Z,28.90
2022-08-12T14:37:55.463Z,28.49
2022-08-12T14:40:28.596Z,28.61
2022-08-12T14:42:59.019Z,29.41
2022-08-12T14:45:44.299Z,28.69
2022-08-12T14:48:16.666Z,28.31
2022-08-12T14:52:10.797Z,29.17
2022-08-12T14:54:49.942Z,28.19
2022-08-12T14:59:57.342Z,27.54
2022-08-12T15:02:23.320Z,27.62
2022-08-12T15:04:59.310Z,28.45
2022-08-12T15:07:34.109Z,28.44
2022-08-12T15:10:25.425Z,28.05
2022-08-12T15:13:07.318Z,29.25
2022-08-12T15:15:43.939Z,28.63
2022-08-12T15:18:21.348Z,29.34
2022-08-12T15:20:51.475Z,28.23
2022-08-12T15:23:21.391Z,28.36
2022-08-12T15:25:59.777Z,28.37
2022-08-12T15:28:33.682Z,29.42
2022-08-12T15:31:02.914Z,28.96
2022-08-12T15:33:50.515Z,28.67
2022-08-12T15:36:50.270Z,28.43
2022-08-12T15:39:17.098Z,29.52
2022-08-12T15:41:49.669Z,29.02
2022-08-12T15:44:42.260Z,28.85
2022-08-12T15:47:08.793Z,28.33
2022-08-12T15:49:54.826Z,28.86
2022-08-12T15:52:28.555Z,29.11
2022-08-12T15:54:58.407Z,29.43
2022-08-12T15:57:33.578Z,29.01
2022-08-12T16:00:07.160Z,27.87
2022-08-12T16:02:47.398Z,27.98
2022-08-12T16:06:17.158Z,27.93
2022-08-12T16:08:16.368Z,28.99
2022-08-12T16:10:45.534Z,29.21
2022-08-12T16:13:32.256Z,29.01
2022-08-12T16:16:03.928Z,28.66
2022-08-12T16:18:33.958Z,28.91
2022-08-12T16:21:02.720Z,28.67
2022-08-12T16:23:52.139Z,28.66
2022-08-12T16:26:32.262Z,29.27
2022-08-12T16:29:14.706Z,28.29
2022-08-12T16:31:44.634Z,27.92
2022-08-12T16:34:39.761Z,28.23
2022-08-12T16:37:07.123Z,28.43
2022-08-12T16:40:01.067Z,28.01
2022-08-12T16:42:28.309Z,27.85
2022-08-12T16:45:02.282Z,27.49
2022-08-12T16:47:44.026Z,27.98
2022-08-12T16:50:30.971Z,27.92
2022-08-12T16:53:03.374Z,27.74
2022-08-12T16:55:42.538Z,27.37
2022-08-12T16:58:18.720Z,27.04
2022-08-12T17:01:02.225Z,27.32
2022-08-12T17:03:35.209Z,27.91
2022-08-12T17:06:06.620Z,27.34
2022-08-12T17:08:35.126Z,28.20
2022-08-12T17:11:08.406Z,28.49
2022-08-12T17:13:37.001Z,29.61
2022-08-12T17:16:24.151Z,29.97
2022-08-12T17:18:57.155Z,30.44
2022-08-12T17:21:41.697Z,30.57
2022-08-12T17:24:21.436Z,30.64
2022-08-12T17:26:54.167Z,30.83
2022-08-12T17:30:00.666Z,31.16
2022-08-12T17:32:15.698Z,31.02
2022-08-12T17:35:08.126Z,30.86
2022-08-12T17:37:38.768Z,31.21
2022-08-12T17:40:17.675Z,31.62
2022-08-12T17:43:01.162Z,31.61
2022-08-12T17:45:31.900Z,31.56
2022-08-12T17:48:09.428Z,31.59
2022-08-12T17:50:42.746Z,31.87
2022-08-12T17:53:11.611Z,31.92
2022-08-12T17:55:47.318Z,32.31
2022-08-12T17:58:17.888Z,32.23
2022-08-12T18:00:48.202Z,32.07
2022-08-12T18:03:58.167Z,32.65
2022-08-12T18:06:13.894Z,32.59
2022-08-12T18:08:54.819Z,32.77
2022-08-12T18:12:06.646Z,33.13
2022-08-12T18:14:31.505Z,33.22
2022-08-12T18:17:02.477Z,33.51
2022-08-12T18:19:34.075Z,33.93
2022-08-12T18:22:30.826Z,33.84
2022-08-12T18:25:03.753Z,34.07
2022-08-12T18:27:44.493Z,34.32
2022-08-12T18:30:20.993Z,34.21
2022-08-12T18:33:04.338Z,34.65
2022-08-12T18:35:46.332Z,34.52
2022-08-12T18:38:17.167Z,34.63
2022-08-12T18:41:06.069Z,34.45
2022-08-12T18:43:57.666Z,35.08
2022-08-12T18:46:29.901Z,35.12
2022-08-12T18:49:17.071Z,35.72
2022-08-12T18:51:55.558Z,35.54
2022-08-12T18:54:35.010Z,35.63
2022-08-12T18:57:16.370Z,35.65
2022-08-12T19:00:01.956Z,36.16
2022-08-12T19:02:40.396Z,36.14
2022-08-12T19:05:11.970Z,36.51
2022-08-12T19:08:00.035Z,36.66
2022-08-12T19:10:31.989Z,37.16
2022-08-12T19:13:23.417Z,36.99
2022-08-12T19:15:57.528Z,37.30
2022-08-12T19:18:30.922Z,37.23
2022-08-12T19:21:06.437Z,37.48
2022-08-12T19:23:41.710Z,37.46
2022-08-12T19:26:12.629Z,37.61
2022-08-12T19:28:41.780Z,37.77
2022-08-12T19:31:56.719Z,37.91
2022-08-12T19:34:56.444Z,38.09
2022-08-12T19:37:20.314Z,38.05
2022-08-12T19:40:08.755Z,38.41
2022-08-12T19:42:44.868Z,38.02
2022-08-12T19:45:17.683Z,38.43
2022-08-12T19:47:46.913Z,38.21
2022-08-12T19:50:19.992Z,38.61
2022-08-12T19:52:51.188Z,38.48
2022-08-12T19:55:23.550Z,39.02
2022-08-12T19:58:01.315Z,39.18
2022-08-12T20:00:34.955Z,38.92
2022-08-12T20:03:07.777Z,39.06
2022-08-12T20:06:06.240Z,39.17
2022-08-12T20:08:34.513Z,39.49
2022-08-12T20:12:10.249Z,39.71
2022-08-12T20:14:00.304Z,39.71
2022-08-12T20:19:52.571Z,40.00
2022-08-12T20:22:24.181Z,40.32
2022-08-12T20:25:01.091Z,40.43
2022-08-12T20:28:04.396Z,40.49
2022-08-12T20:30:52.333Z,40.65
2022-08-12T20:33:18.420Z,40.84
2022-08-12T20:36:13.424Z,40.92
2022-08-12T20:38:46.030Z,41.35
2022-08-12T20:41:17.608Z,41.36
2022-08-12T20:43:52.083Z,41.15
2022-08-12T20:46:21.393Z,41.39
2022-08-12T20:48:54.759Z,41.75
2022-08-12T20:51:23.930Z,41.43
2022-08-12T20:53:59.585Z,41.87
2022-08-12T20:56:33.547Z,41.87
2022-08-12T20:59:06.042Z,41.69
2022-08-12T21:01:46.308Z,42.06
2022-08-12T21:04:33.920Z,41.76
2022-08-12T21:07:08.703Z,42.00
2022-08-12T21:09:42.031Z,42.33
2022-08-12T21:12:28.527Z,42.40
2022-08-12T21:15:24.424Z,42.25
2022-08-12T21:18:09.131Z,42.26
2022-08-12T21:20:42.033Z,42.52
2022-08-12T21:23:10.477Z,42.82
2022-08-12T21:25:45.659Z,42.87
2022-08-12T21:28:14.894Z,43.04
2022-08-12T21:31:10.592Z,43.32
2022-08-12T21:33:58.293Z,43.08
2022-08-12T21:36:22.601Z,43.12
2022-08-12T21:38:53.968Z,43.19
2022-08-12T21:41:24.305Z,43.43
2022-08-12T21:43:52.722Z,43.56
2022-08-12T21:46:34.716Z,44.12
2022-08-12T21:49:05.444Z,43.81
2022-08-12T21:51:50.269Z,43.51
2022-08-12T21:54:21.869Z,43.78
2022-08-12T21:56:53.682Z,43.60
2022-08-12T21:59:23.117Z,43.86
2022-08-12T22:01:54.072Z,44.08
2022-08-12T22:04:40.410Z,44.03
2022-08-12T22:07:09.089Z,44.01
2022-08-12T22:09:42.635Z,44.36
2022-08-12T22:12:29.649Z,44.24
2022-08-12T22:14:58.172Z,44.44
2022-08-12T22:17:50.442Z,44.35
2022-08-12T22:20:22.368Z,44.48
2022-08-12T22:22:59.597Z,44.59
2022-08-12T22:25:28.708Z,44.59
2022-08-12T22:28:15.226Z,44.52
2022-08-12T22:31:01.844Z,44.57
2022-08-12T22:33:54.244Z,44.74
2022-08-12T22:36:28.981Z,45.12
2022-08-12T22:39:00.028Z,45.03
2022-08-12T22:41:46.134Z,45.52
2022-08-12T22:44:32.161Z,45.57
2022-08-12T22:47:49.707Z,45.36
2022-08-12T22:50:28.280Z,45.57
2022-08-12T22:53:15.401Z,45.63
2022-08-12T22:55:59.859Z,46.04
2022-08-12T22:58:40.283Z,45.57
2022-08-12T23:01:11.152Z,45.52
2022-08-12T23:03:48.180Z,45.67
2022-08-12T23:06:23.935Z,45.21
2022-08-12T23:08:54.648Z,45.93
2022-08-12T23:11:25.389Z,45.92
2022-08-12T23:14:01.833Z,45.88
2022-08-12T23:16:34.150Z,45.93
2022-08-12T23:19:10.613Z,45.96
2022-08-12T23:22:05.527Z,45.97
2022-08-12T23:24:56.704Z,46.31
2022-08-12T23:27:51.046Z,46.59
2022-08-12T23:30:31.050Z,46.42
2022-08-12T23:33:01.650Z,46.53
2022-08-12T23:35:53.475Z,46.56
2022-08-12T23:38:30.555Z,46.63
2022-08-12T23:41:02.059Z,46.61
2022-08-12T23:43:39.260Z,46.68
2022-08-12T23:46:11.649Z,46.74
2022-08-12T23:48:41.012Z,47.05
2022-08-12T23:51:22.398Z,47.21
2022-08-12T23:56:25.152Z,47.34
2022-08-12T23:58:57.465Z,47.30
